Time;durP1;ratioP1;P1;durP2;ratioP2;P2;SDS_P1;SDS_P2;PMS_P1;PMS_P2;Temp;Humidity;BMP_temperature;BMP_pressure;BME280_temperature;BME280_humidity;BME280_pressure;Samples;Min_cycle;Max_cycle;Signal;HPM_P1;HPM_P2
2024/02/06 00:01:52;;;;;;;1.80;1.60;;;9.50;99.90;;;9.61;95.78;100290.59;6102148;23;20391;-78
2024/02/06 00:04:22;;;;;;;13.73;1.60;;;9.50;99.90;;;9.69;95.03;100289.53;6100786;23;20411;-78
2024/02/06 00:06:58;;;;;;;3.83;1.77;;;9.60;99.90;;;9.62;95.25;100292.28;6070748;23;20427;-78
2024/02/06 00:09:27;;;;;;;1.83;1.20;;;9.60;99.90;;;9.58;95.44;100302.66;6099703;23;20191;-79
2024/02/06 00:12:00;;;;;;;3.15;1.70;;;9.50;99.90;;;9.60;94.94;100276.28;6098980;23;20376;-78
2024/02/06 00:14:33;;;;;;;5.57;1.33;;;9.50;99.90;;;9.63;95.25;100272.34;6099995;23;20247;-78
2024/02/06 00:17:06;;;;;;;4.93;1.40;;;9.60;99.90;;;9.62;94.93;100276.06;6096595;23;20486;-77
2024/02/06 00:19:46;;;;;;;1.85;1.15;;;9.60;99.90;;;9.52;95.44;100276.50;6100443;23;20435;-78
2024/02/06 00:22:35;;;;;;;1.98;1.05;;;9.50;99.90;;;9.52;95.38;100264.88;6100649;23;20175;-78
2024/02/06 00:25:19;;;;;;;1.90;1.50;;;9.50;99.90;;;9.53;95.69;100269.22;6099889;23;20207;-78
2024/02/06 00:27:56;;;;;;;2.03;1.65;;;9.50;99.90;;;9.52;95.23;100271.09;6101340;23;20178;-79
2024/02/06 00:30:33;;;;;;;3.03;2.63;;;9.40;99.90;;;9.51;95.43;100265.91;6101556;23;20211;-78
2024/02/06 00:33:07;;;;;;;0.97;0.87;;;9.40;99.90;;;9.45;94.76;100237.84;6075379;23;20457;-78
2024/02/06 00:35:40;;;;;;;3.00;1.77;;;9.40;99.90;;;9.41;94.77;100260.94;6086893;23;20370;-79
2024/02/06 00:38:16;;;;;;;1.23;1.13;;;9.40;99.90;;;9.46;94.77;100265.69;6121014;23;20382;-78
2024/02/06 00:40:48;;;;;;;2.80;1.87;;;9.40;99.90;;;9.48;94.37;100258.22;6094786;23;20398;-77
2024/02/06 00:43:17;;;;;;;1.92;1.48;;;9.40;99.90;;;9.47;94.32;100256.56;6096701;23;20399;-79
2024/02/06 00:45:48;;;;;;;2.58;2.38;;;9.40;99.90;;;9.48;93.80;100250.97;6122084;23;20190;-78
2024/02/06 00:48:21;;;;;;;1.90;1.70;;;9.40;99.90;;;9.51;93.54;100253.22;6122108;23;20190;-79
2024/02/06 00:50:52;;;;;;;2.50;1.40;;;9.40;99.90;;;9.49;93.68;100249.06;6098958;23;20391;-78
2024/02/06 00:53:25;;;;;;;7.05;1.60;;;9.40;99.90;;;9.50;92.93;100250.72;6122241;23;20644;-78
2024/02/06 00:55:57;;;;;;;1.50;1.40;;;9.40;99.90;;;9.51;92.62;100247.00;6104518;23;20151;-78
2024/02/06 00:58:28;;;;;;;3.13;1.63;;;9.40;99.90;;;9.52;92.19;100248.66;6098177;23;20427;-78
2024/02/06 01:01:02;;;;;;;2.05;1.05;;;9.40;99.90;;;9.59;92.34;100249.47;6099112;23;20355;-78
2024/02/06 01:03:42;;;;;;;1.38;1.27;;;9.50;99.90;;;9.55;91.94;100245.53;6099039;23;20152;-79
2024/02/06 01:06:12;;;;;;;1.60;1.50;;;9.50;99.90;;;9.59;91.47;100249.47;6099739;23;20254;-77
2024/02/06 01:08:44;;;;;;;19.10;3.05;;;9.50;99.90;;;9.59;91.83;100255.69;6096323;23;20420;-78
2024/02/06 01:11:17;;;;;;;2.50;1.80;;;9.50;99.90;;;9.56;91.79;100247.19;6100379;23;20210;-78
2024/02/06 01:13:53;;;;;;;2.50;1.60;;;9.50;99.90;;;9.55;91.47;100259.03;6074997;23;20408;-78
2024/02/06 01:16:28;;;;;;;2.20;1.13;;;9.50;99.90;;;9.51;91.78;100249.69;6111295;23;20363;-77
2024/02/06 01:19:07;;;;;;;1.98;1.45;;;9.50;99.90;;;9.53;91.88;100250.31;6114183;23;20216;-78
2024/02/06 01:21:40;;;;;;;1.33;1.10;;;9.50;99.90;;;9.55;91.69;100256.31;6113542;23;20182;-77
2024/02/06 01:24:13;;;;;;;1.67;1.10;;;9.50;99.90;;;9.53;91.60;100256.56;6113315;23;20411;-78
2024/02/06 01:26:46;;;;;;;1.80;1.48;;;9.50;99.90;;;9.56;91.67;100255.28;6108569;23;20393;-77
2024/02/06 01:29:23;;;;;;;3.83;3.50;;;9.50;99.90;;;9.55;92.38;100267.13;6109333;23;20199;-79
2024/02/06 01:32:06;;;;;;;3.53;1.90;;;9.50;99.90;;;9.49;92.56;100246.34;6105973;23;20657;-78
2024/02/06 01:34:38;;;;;;;1.40;0.65;;;9.40;99.90;;;9.50;92.55;100248.03;6107275;23;20371;-78
2024/02/06 01:37:15;;;;;;;4.43;2.00;;;9.40;99.90;;;9.48;92.28;100260.94;6108912;23;20158;-77
2024/02/06 01:39:44;;;;;;;2.25;1.58;;;9.40;99.90;;;9.50;92.53;100256.13;6120710;23;20362;-77
2024/02/06 01:42:13;;;;;;;3.75;1.25;;;9.40;99.90;;;9.51;93.63;100257.78;6123021;23;20175;-78
2024/02/06 01:44:43;;;;;;;3.75;1.33;;;9.40;99.90;;;9.44;94.68;100254.28;6125373;23;20168;-77
2024/02/06 01:47:15;;;;;;;9.27;1.10;;;9.40;99.90;;;9.40;95.29;100242.22;6126005;23;20203;-78
2024/02/06 01:49:47;;;;;;;2.25;2.05;;;9.40;99.90;;;9.36;95.38;100241.81;6126013;23;20174;-78
2024/02/06 01:52:16;;;;;;;1.52;1.42;;;9.30;99.90;;;9.34;95.55;100241.22;6126616;23;20136;-77
2024/02/06 01:54:45;;;;;;;2.15;1.70;;;9.30;99.90;;;9.31;95.70;100240.78;6125985;23;20136;-75
2024/02/06 01:57:21;;;;;;;2.33;1.83;;;9.30;99.90;;;9.31;95.84;100238.91;6105295;23;20148;-77
2024/02/06 01:59:54;;;;;;;2.15;1.95;;;9.30;99.90;;;9.36;95.72;100238.28;6099751;23;20695;-78
2024/02/06 02:02:28;;;;;;;1.90;1.45;;;9.30;99.90;;;9.32;95.64;100220.84;6074572;23;20649;-79
2024/02/06 02:05:07;;;;;;;1.70;1.35;;;9.20;99.90;;;9.30;96.27;100212.94;6100652;23;20148;-78
2024/02/06 02:07:48;;;;;;;1.55;1.45;;;9.20;99.90;;;9.27;96.60;100228.75;6099433;23;20207;-78
2024/02/06 02:10:20;;;;;;;2.55;1.67;;;9.20;99.90;;;9.21;97.36;100214.22;6098393;23;20185;-78
2024/02/06 02:12:51;;;;;;;1.90;1.40;;;9.20;99.90;;;9.25;97.66;100214.63;6098453;23;20144;-77
2024/02/06 02:15:20;;;;;;;1.33;0.90;;;9.20;99.90;;;9.25;98.39;100203.81;6098272;23;20159;-77
2024/02/06 02:17:51;;;;;;;1.60;1.15;;;9.20;99.90;;;9.24;98.44;100202.19;6072263;23;20522;-77
2024/02/06 02:20:22;;;;;;;1.25;1.15;;;9.20;99.90;;;9.18;99.13;100203.00;6098062;23;20164;-77
2024/02/06 02:22:52;;;;;;;2.53;1.48;;;9.10;99.90;;;9.19;98.78;100200.13;6096865;23;20171;-77
2024/02/06 02:25:23;;;;;;;2.85;1.10;;;9.10;99.90;;;9.18;99.05;100201.16;6096939;23;20158;-77
2024/02/06 02:27:53;;;;;;;5.38;1.23;;;9.10;99.90;;;9.18;99.60;100192.22;6098465;23;20156;-77
2024/02/06 02:30:23;;;;;;;1.65;1.33;;;9.10;99.90;;;9.21;99.71;100186.38;6097820;23;20178;-77
2024/02/06 02:33:04;;;;;;;1.42;0.70;;;9.10;99.90;;;9.15;99.71;100194.28;6098773;23;20166;-77
2024/02/06 02:35:35;;;;;;;2.17;1.20;;;9.10;99.90;;;9.15;100.00;100198.84;6098464;23;20267;-77
2024/02/06 02:38:06;;;;;;;1.40;1.27;;;9.10;99.90;;;9.18;99.98;100200.31;6099238;23;20162;-78
2024/02/06 02:40:35;;;;;;;7.40;2.00;;;9.10;99.90;;;9.12;100.00;100192.03;6075590;23;20242;-78
2024/02/06 02:43:10;;;;;;;2.40;1.80;;;9.10;99.90;;;9.16;100.00;100189.72;6074895;23;20222;-76
2024/02/06 02:45:44;;;;;;;1.30;0.98;;;9.10;99.90;;;9.10;100.00;100195.97;6101578;23;20226;-78
2024/02/06 02:48:21;;;;;;;1.73;1.10;;;9.10;99.90;;;9.02;100.00;100186.22;6099724;23;20247;-78
2024/02/06 02:50:53;;;;;;;2.55;1.80;;;9.00;99.90;;;9.06;100.00;100186.63;6097932;23;20210;-77
2024/02/06 02:53:29;;;;;;;2.37;1.50;;;9.00;99.90;;;9.01;100.00;100181.03;6098430;23;20159;-79
2024/02/06 02:56:01;;;;;;;1.50;1.23;;;9.00;99.90;;;9.01;100.00;100181.03;6100852;23;20354;-77
2024/02/06 02:58:35;;;;;;;2.78;1.23;;;9.00;99.90;;;8.97;100.00;100168.97;6072517;23;20413;-78
2024/02/06 03:01:11;;;;;;;1.55;1.30;;;8.90;99.90;;;9.01;100.00;100176.44;6072050;23;20167;-78
2024/02/06 03:03:43;;;;;;;2.28;1.80;;;9.00;99.90;;;9.00;100.00;100166.72;6097930;23;20147;-77
2024/02/06 03:06:19;;;;;;;1.00;0.73;;;9.00;99.90;;;9.04;100.00;100165.25;6074751;23;20188;-78
2024/02/06 03:08:58;;;;;;;1.55;1.08;;;9.00;99.90;;;9.01;100.00;100164.81;6099778;23;20190;-79
2024/02/06 03:11:31;;;;;;;4.80;2.13;;;8.90;99.90;;;9.05;100.00;100161.50;6103239;23;20532;-79
2024/02/06 03:14:01;;;;;;;4.00;1.85;;;9.00;99.90;;;9.00;100.00;100153.22;6102758;23;20195;-78
2024/02/06 03:16:30;;;;;;;2.20;2.05;;;9.00;99.90;;;9.01;100.00;100160.25;6105457;23;20160;-80
2024/02/06 03:19:00;;;;;;;2.55;1.83;;;9.00;99.90;;;9.02;100.00;100153.81;6107410;23;20190;-78
2024/02/06 03:21:30;;;;;;;1.30;0.93;;;8.90;99.90;;;9.02;100.00;100156.53;6105346;23;20171;-77
2024/02/06 03:24:00;;;;;;;3.50;1.42;;;9.00;99.90;;;8.99;100.00;100165.06;6098442;23;20191;-78
2024/02/06 03:26:29;;;;;;;2.78;2.20;;;8.90;99.90;;;9.01;100.00;100154.88;6100197;23;20201;-78
2024/02/06 03:29:00;;;;;;;3.72;1.50;;;8.90;99.90;;;9.06;100.00;100152.38;6098131;23;20194;-79
2024/02/06 03:31:29;;;;;;;1.60;1.27;;;9.00;99.90;;;9.01;100.00;100160.25;6073155;23;20733;-78
2024/02/06 03:34:01;;;;;;;4.70;1.85;;;8.90;99.90;;;8.90;100.00;100143.91;6099435;23;20392;-78
2024/02/06 03:36:30;;;;;;;4.15;2.75;;;8.90;99.90;;;8.90;100.00;100147.44;6097697;23;20538;-78
2024/02/06 03:39:00;;;;;;;2.20;1.60;;;8.90;99.90;;;8.86;100.00;100135.38;6073363;23;20191;-79
2024/02/06 03:41:33;;;;;;;1.73;1.63;;;8.80;99.90;;;8.88;100.00;100144.09;6099971;23;20167;-79
2024/02/06 03:44:02;;;;;;;2.22;1.25;;;8.80;99.90;;;8.95;100.00;100134.13;6100609;23;20543;-79
2024/02/06 03:46:31;;;;;;;3.83;2.35;;;8.90;99.90;;;8.96;100.00;100135.78;6098254;23;20685;-78
2024/02/06 03:49:07;;;;;;;2.78;2.33;;;8.90;99.90;;;8.91;100.00;100140.13;6097113;23;20183;-77
2024/02/06 03:51:37;;;;;;;2.72;2.42;;;8.80;99.90;;;8.90;100.00;100146.59;6099913;23;20511;-79
2024/02/06 03:54:10;;;;;;;1.83;1.40;;;8.90;99.90;;;8.95;100.00;100144.94;6101095;23;20170;-77
2024/02/06 03:56:43;;;;;;;1.60;1.33;;;8.90;99.90;;;8.94;100.00;100143.25;6097268;23;20170;-78
2024/02/06 03:59:16;;;;;;;1.17;0.70;;;8.90;99.90;;;8.85;100.00;100147.22;6100351;23;20211;-77
2024/02/06 04:01:48;;;;;;;2.45;1.35;;;8.80;99.90;;;8.89;100.00;100145.75;6099770;23;20175;-78
2024/02/06 04:04:19;;;;;;;1.67;1.50;;;8.80;99.90;;;8.90;100.00;100142.03;6103032;23;20518;-79
2024/02/06 04:06:49;;;;;;;3.92;1.48;;;8.90;99.90;;;8.91;100.00;100122.06;6099410;23;20246;-78
2024/02/06 04:09:20;;;;;;;2.78;1.52;;;8.80;99.90;;;8.93;100.00;100129.97;6096433;23;20565;-78
2024/02/06 04:11:49;;;;;;;1.95;1.30;;;8.90;99.90;;;8.85;100.00;100114.00;6071161;23;20167;-78
2024/02/06 04:14:18;;;;;;;2.25;1.08;;;8.80;99.90;;;8.88;100.00;100127.06;6096706;23;20195;-78
2024/02/06 04:16:54;;;;;;;1.70;0.98;;;8.80;99.90;;;8.90;100.00;100133.94;6096393;23;20219;-78
2024/02/06 04:19:28;;;;;;;2.35;1.10;;;8.80;99.90;;;8.95;100.00;100136.84;6078960;23;20191;-77
2024/02/06 04:22:02;;;;;;;1.67;1.33;;;8.80;99.90;;;8.97;100.00;100134.75;6072759;23;20224;-79
2024/02/06 04:24:35;;;;;;;1.30;1.13;;;8.90;99.90;;;8.97;100.00;100137.44;6072234;23;20175;-77
2024/02/06 04:27:04;;;;;;;2.50;1.50;;;8.90;99.90;;;8.95;100.00;100134.13;6071849;23;20187;-77
2024/02/06 04:29:33;;;;;;;3.38;1.85;;;8.90;99.90;;;9.01;100.00;100132.44;6071643;23;20196;-77
2024/02/06 04:32:03;;;;;;;2.65;1.52;;;8.90;99.90;;;9.00;100.00;100126.25;6096500;23;20163;-76
2024/02/06 04:34:33;;;;;;;2.73;1.13;;;8.90;99.90;;;8.94;100.00;100116.28;6095691;23;20168;-77
2024/02/06 04:37:02;;;;;;;1.63;1.50;;;8.90;99.90;;;9.01;100.00;100117.09;6095723;23;20442;-77
2024/02/06 04:39:32;;;;;;;1.88;1.55;;;8.90;99.90;;;9.01;100.00;100117.09;6095606;23;20215;-77
2024/02/06 04:42:02;;;;;;;1.38;1.05;;;8.90;99.90;;;8.99;100.00;100108.38;6096447;23;20183;-78
2024/02/06 04:44:31;;;;;;;1.33;0.65;;;9.00;99.90;;;9.00;100.00;100103.81;6096320;23;20187;-77
2024/02/06 04:47:00;;;;;;;2.63;1.15;;;9.00;99.90;;;9.06;100.00;100114.56;6096689;23;20266;-76
2024/02/06 04:49:29;;;;;;;1.92;1.67;;;9.00;99.90;;;9.07;100.00;100102.75;6096957;23;20631;-76
2024/02/06 04:51:58;;;;;;;1.35;0.90;;;9.00;99.90;;;9.02;100.00;100102.56;6103390;23;20167;-76
2024/02/06 04:54:30;;;;;;;1.63;1.35;;;9.00;99.90;;;9.02;100.00;100097.16;6095224;23;20183;-75
2024/02/06 04:56:59;;;;;;;2.95;1.20;;;8.90;99.90;;;9.04;100.00;100105.88;6121096;23;20136;-77
2024/02/06 04:59:35;;;;;;;0.90;0.60;;;8.90;99.90;;;9.02;100.00;100091.75;6125481;23;20179;-77
2024/02/06 05:02:10;;;;;;;8.00;1.20;;;9.00;99.90;;;9.01;100.00;100082.00;6100887;23;20175;-78
2024/02/06 05:04:43;;;;;;;1.50;1.00;;;9.00;99.90;;;9.01;100.00;100094.66;6125980;23;20151;-79
2024/02/06 05:10:10;;;;;;;1.35;1.00;;;8.90;99.90;;;9.07;100.00;100080.31;6117370;23;20191;-76
2024/02/06 05:12:43;;;;;;;1.88;1.10;;;9.00;99.90;;;8.97;100.00;100078.06;6115972;23;20163;-78
2024/02/06 05:15:14;;;;;;;5.30;1.45;;;8.90;99.90;;;9.00;100.00;100076.84;6100785;23;20148;-77
2024/02/06 05:17:43;;;;;;;4.90;2.28;;;8.90;99.90;;;9.02;100.00;100072.88;6076362;23;20183;-78
2024/02/06 05:20:12;;;;;;;1.63;1.00;;;8.90;99.90;;;9.00;100.00;100087.63;6104146;23;20187;-76
2024/02/06 05:22:41;;;;;;;2.08;1.85;;;9.00;99.90;;;8.99;100.00;100078.69;6103532;23;20175;-77
2024/02/06 05:25:14;;;;;;;1.30;0.88;;;8.90;99.90;;;8.97;100.00;100083.47;6101391;23;20246;-78
2024/02/06 05:27:43;;;;;;;4.28;2.30;;;8.90;99.90;;;8.97;100.00;100072.69;6100932;23;20176;-77
2024/02/06 05:30:15;;;;;;;5.72;2.45;;;8.90;99.90;;;9.00;100.00;100076.84;6110274;23;20238;-76
2024/02/06 05:32:44;;;;;;;1.20;0.90;;;8.90;99.90;;;9.01;100.00;100063.09;6106490;23;20207;-76
2024/02/06 05:35:20;;;;;;;1.83;1.65;;;8.90;99.90;;;9.02;100.00;100066.63;6101112;23;20551;-77
2024/02/06 05:38:02;;;;;;;1.58;1.48;;;9.00;99.90;;;9.02;100.00;100058.53;6095961;23;20172;-78
2024/02/06 05:40:32;;;;;;;1.80;1.38;;;8.90;99.90;;;9.12;100.00;100065.16;6069383;23;20176;-79
2024/02/06 05:43:01;;;;;;;10.93;1.48;;;9.00;99.90;;;9.13;100.00;100064.13;6069424;23;20183;-78
2024/02/06 05:45:31;;;;;;;1.98;1.45;;;9.00;99.90;;;9.14;100.00;100059.56;6068886;23;20168;-78
2024/02/06 05:48:01;;;;;;;1.40;1.02;;;9.00;99.90;;;9.04;100.00;100057.31;6068984;23;20204;-79
2024/02/06 05:50:30;;;;;;;1.48;1.38;;;9.00;99.90;;;9.20;100.00;100060.59;6073832;23;20168;-77
2024/02/06 05:53:00;;;;;;;1.20;0.73;;;9.10;99.90;;;9.14;100.00;100057.69;6068905;23;20171;-77
2024/02/06 05:55:30;;;;;;;1.57;0.80;;;9.00;99.90;;;9.23;100.00;100060.16;6069414;23;20190;-77
2024/02/06 05:58:00;;;;;;;1.40;1.23;;;9.10;99.90;;;9.22;100.00;100048.50;6068418;23;20898;-77
2024/02/06 06:00:31;;;;;;;1.27;0.82;;;9.10;99.90;;;9.20;100.00;100060.59;6068620;23;20575;-77
2024/02/06 06:03:04;;;;;;;1.20;1.10;;;9.20;99.90;;;9.23;100.00;100065.53;6071250;23;20167;-77
2024/02/06 06:05:37;;;;;;;9.80;1.23;;;9.20;99.90;;;9.22;100.00;100053.91;6069287;23;20169;-79
2024/02/06 06:08:12;;;;;;;2.65;1.63;;;9.20;99.90;;;9.23;100.00;100043.94;6046741;23;20524;-77
2024/02/06 06:10:50;;;;;;;1.30;1.00;;;9.10;99.90;;;9.26;100.00;100048.91;6070848;23;20172;-78
2024/02/06 06:13:30;;;;;;;1.77;1.50;;;9.20;99.90;;;9.23;100.00;100038.53;6070537;23;20440;-77
2024/02/06 06:16:05;;;;;;;1.63;1.52;;;9.20;99.90;;;9.25;100.00;100039.16;6070531;23;20148;-77
2024/02/06 06:18:37;;;;;;;1.00;0.70;;;9.10;99.90;;;9.28;100.00;100041.44;6068909;23;20188;-77
2024/02/06 06:21:07;;;;;;;1.60;1.17;;;9.20;99.90;;;9.27;100.00;100037.06;6070514;23;20153;-76
2024/02/06 06:23:35;;;;;;;4.70;1.42;;;9.20;99.90;;;9.33;100.00;100055.94;6069595;23;21076;-76
2024/02/06 06:26:07;;;;;;;1.67;1.57;;;9.20;99.90;;;9.34;99.85;100040.59;6068987;23;20183;-78
2024/02/06 06:28:36;;;;;;;2.00;1.57;;;9.20;99.90;;;9.33;100.00;100028.97;6067911;23;20436;-78
2024/02/06 06:31:08;;;;;;;1.40;1.10;;;9.30;99.90;;;9.33;100.00;100028.13;6069314;23;20367;-75
2024/02/06 06:33:37;;;;;;;2.55;1.88;;;9.30;99.90;;;9.39;100.00;100044.28;6069392;23;20231;-76
2024/02/06 06:36:08;;;;;;;6.28;1.70;;;9.30;99.90;;;9.34;100.00;100029.78;6068792;23;20164;-76
2024/02/06 06:38:39;;;;;;;2.10;0.90;;;9.30;99.90;;;9.33;100.00;100023.56;6069305;23;20210;-76
2024/02/06 06:41:08;;;;;;;1.10;0.98;;;9.30;99.90;;;9.35;100.00;100028.72;6068633;23;20678;-77
2024/02/06 06:43:38;;;;;;;2.55;1.10;;;9.30;99.90;;;9.35;100.00;100020.63;6068562;23;20207;-77
2024/02/06 06:46:08;;;;;;;5.43;3.00;;;9.30;99.90;;;9.42;100.00;100022.25;6068121;23;20507;-76
2024/02/06 06:48:37;;;;;;;2.75;1.15;;;9.30;99.90;;;9.41;100.00;100015.19;6068688;23;20726;-77
2024/02/06 06:51:09;;;;;;;1.40;1.17;;;9.30;99.90;;;9.42;100.00;100019.56;6070010;23;20165;-77
2024/02/06 06:53:38;;;;;;;2.47;1.92;;;9.30;99.90;;;9.35;100.00;100010.66;6042720;23;20404;-76
2024/02/06 06:56:19;;;;;;;3.08;1.40;;;9.30;99.90;;;9.43;100.00;100013.13;6068035;23;20736;-77
2024/02/06 06:58:51;;;;;;;7.32;1.38;;;9.30;99.90;;;9.42;100.00;100010.63;6045024;23;20218;-77
2024/02/06 07:01:25;;;;;;;1.67;1.58;;;9.30;99.90;;;9.43;100.00;100006.88;6069980;23;20502;-77
2024/02/06 07:04:04;;;;;;;2.22;1.35;;;9.30;99.90;;;9.43;100.00;100017.69;6046952;23;20172;-77
2024/02/06 07:06:43;;;;;;;4.50;1.20;;;9.30;99.90;;;9.44;100.00;100008.56;6072159;23;20145;-78
2024/02/06 07:09:13;;;;;;;1.20;1.03;;;9.30;99.90;;;9.46;100.00;100011.84;6047810;23;20226;-76
2024/02/06 07:11:44;;;;;;;1.10;0.90;;;9.40;99.90;;;9.51;99.47;100014.72;6070980;23;20373;-77
2024/02/06 07:14:14;;;;;;;2.10;1.38;;;9.40;99.90;;;9.54;99.29;99998.06;6073978;23;20200;-77
2024/02/06 07:16:47;;;;;;;2.42;1.90;;;9.40;99.90;;;9.57;98.93;100003.06;6068479;23;20259;-76
2024/02/06 07:19:23;;;;;;;1.30;0.82;;;9.50;99.90;;;9.60;98.31;100010.72;6069848;23;20192;-76
2024/02/06 07:21:59;;;;;;;1.50;1.05;;;9.50;99.90;;;9.54;98.41;99988.09;6071266;23;20195;-76
2024/02/06 07:24:31;;;;;;;1.75;1.45;;;9.50;99.90;;;9.60;98.52;100016.13;6074324;23;20169;-78
2024/02/06 07:27:00;;;;;;;2.60;1.23;;;9.50;99.90;;;9.63;98.01;100007.59;6073965;23;20591;-77
2024/02/06 07:29:29;;;;;;;2.10;1.03;;;9.50;99.90;;;9.66;97.93;100003.63;6075682;23;20426;-77
2024/02/06 07:32:01;;;;;;;2.78;2.13;;;9.60;99.90;;;9.66;98.08;100001.75;6077452;23;20377;-77
2024/02/06 07:34:30;;;;;;;1.67;1.10;;;9.60;99.90;;;9.69;97.76;100006.72;6074131;23;20172;-76
2024/02/06 07:37:01;;;;;;;1.60;1.50;;;9.60;99.90;;;9.76;97.75;100012.09;6076241;23;20160;-77
2024/02/06 07:39:31;;;;;;;2.80;1.37;;;9.60;99.90;;;9.71;98.17;99999.22;6071195;23;20413;-76
2024/02/06 07:42:00;;;;;;;1.00;0.90;;;9.60;99.90;;;9.79;97.55;100017.88;6100000;23;20420;-78
2024/02/06 07:44:30;;;;;;;1.00;0.70;;;9.70;99.90;;;9.73;97.35;99997.13;6071718;23;20171;-77
2024/02/06 07:47:04;;;;;;;1.20;0.70;;;9.70;99.90;;;9.77;97.24;100001.06;6072365;23;20399;-78
2024/02/06 07:49:33;;;;;;;1.70;1.15;;;9.70;99.90;;;9.82;97.15;100006.66;6072411;23;20439;-77
2024/02/06 07:52:07;;;;;;;1.50;0.90;;;9.70;99.90;;;9.83;97.02;99989.38;6075474;23;20160;-78
2024/02/06 07:54:43;;;;;;;1.58;1.05;;;9.70;99.90;;;9.88;96.54;99999.50;6071333;23;20508;-76
2024/02/06 07:57:20;;;;;;;1.57;1.33;;;9.80;99.90;;;9.88;96.27;100004.91;6075759;23;20148;-77
2024/02/06 07:59:59;;;;;;;1.43;1.00;;;9.80;99.90;;;9.86;96.64;99985.41;6073834;23;20404;-76
2024/02/06 08:02:36;;;;;;;0.80;0.60;;;9.80;99.90;;;9.82;96.76;99990.44;6081844;23;20445;-76
2024/02/06 08:05:06;;;;;;;3.15;1.33;;;9.80;99.90;;;9.89;96.57;99991.19;6087282;23;20380;-76
2024/02/06 08:07:38;;;;;;;0.97;0.60;;;9.80;99.90;;;9.92;96.48;99988.03;6086810;23;20165;-76
2024/02/06 08:10:12;;;;;;;1.00;0.70;;;9.80;99.90;;;9.87;96.80;100012.22;6085163;23;20515;-77
2024/02/06 08:12:41;;;;;;;1.60;1.13;;;9.80;99.90;;;9.87;97.08;99995.19;6086410;23;20381;-76
2024/02/06 08:15:10;;;;;;;3.30;3.00;;;9.70;99.90;;;9.96;96.71;99986.59;6061450;23;20410;-75
2024/02/06 08:17:42;;;;;;;1.00;0.73;;;9.80;99.90;;;9.89;96.71;99974.97;6087141;23;20384;-76
2024/02/06 08:20:12;;;;;;;2.10;1.08;;;9.80;99.90;;;9.95;96.97;99995.72;6087092;23;20397;-76
2024/02/06 08:22:47;;;;;;;1.33;1.00;;;9.80;99.90;;;9.91;97.63;99993.69;6087857;23;20267;-76
2024/02/06 08:25:19;;;;;;;2.50;0.90;;;9.80;99.90;;;9.93;96.73;99987.00;6087906;23;20347;-76
2024/02/06 08:27:48;;;;;;;2.95;0.63;;;9.80;99.90;;;9.98;96.47;99973.66;6087974;23;20369;-76
2024/02/06 08:30:17;;;;;;;1.10;1.00;;;9.90;99.90;;;10.00;96.02;99982.38;6063953;23;20192;-76
2024/02/06 08:32:48;;;;;;;4.40;3.03;;;9.90;99.90;;;9.99;96.46;99979.91;6086563;23;20182;-76
2024/02/06 08:35:17;;;;;;;2.50;2.30;;;9.90;99.90;;;9.99;96.17;99991.53;6086000;23;20362;-76
2024/02/06 08:37:47;;;;;;;1.83;1.20;;;9.90;99.90;;;10.07;96.01;99981.50;6086592;23;20430;-77
2024/02/06 08:40:19;;;;;;;1.10;0.90;;;10.00;99.90;;;10.04;95.44;99978.19;6049569;23;20759;-76
2024/02/06 08:42:51;;;;;;;1.23;0.80;;;10.00;99.90;;;10.17;95.64;99981.84;6070825;23;20364;-77
2024/02/06 08:45:21;;;;;;;1.30;1.17;;;10.00;99.90;;;10.22;94.93;99971.19;6069607;23;20180;-77
2024/02/06 08:47:51;;;;;;;2.25;1.30;;;10.00;99.90;;;10.23;94.67;99976.38;6068823;23;20397;-77
2024/02/06 08:50:20;;;;;;;1.30;1.08;;;10.10;99.90;;;10.32;94.27;99974.22;6069191;23;20176;-77
2024/02/06 08:52:52;;;;;;;1.53;1.43;;;10.20;99.90;;;10.40;93.41;99971.25;6071039;23;20235;-76
2024/02/06 08:55:21;;;;;;;0.90;0.60;;;10.30;99.90;;;10.42;93.16;99964.56;6076174;23;20352;-76
2024/02/06 08:57:50;;;;;;;1.57;0.90;;;10.30;99.90;;;10.44;92.64;99964.34;6086697;23;20403;-76
2024/02/06 09:00:21;;;;;;;1.10;1.00;;;10.30;99.90;;;10.45;92.16;99955.19;6094123;23;20388;-76
2024/02/06 09:02:51;;;;;;;2.40;1.77;;;10.30;99.90;;;10.55;91.83;99955.50;6093782;23;20348;-76
2024/02/06 09:05:20;;;;;;;1.33;0.80;;;10.40;99.90;;;10.65;91.48;99958.47;6094116;23;20411;-77
2024/02/06 09:07:49;;;;;;;1.20;0.83;;;10.50;99.90;;;10.71;90.72;99957.56;6094609;23;20405;-75
2024/02/06 09:10:18;;;;;;;1.73;0.90;;;10.50;99.90;;;10.76;90.72;99967.72;6094268;23;20419;-75
2024/02/06 09:12:51;;;;;;;1.20;1.10;;;10.50;99.90;;;10.67;89.99;99956.38;6094431;23;20355;-75
2024/02/06 09:15:20;;;;;;;1.10;0.93;;;10.60;99.90;;;10.67;90.33;99956.38;6094821;23;20428;-76
2024/02/06 09:17:49;;;;;;;1.10;1.00;;;10.50;99.90;;;10.65;89.81;99957.66;6094742;23;20465;-75
2024/02/06 09:20:20;;;;;;;1.40;1.20;;;10.50;99.90;;;10.64;90.15;99962.25;6094935;23;20396;-78
2024/02/06 09:22:49;;;;;;;3.87;3.60;;;10.50;99.90;;;10.62;90.17;99958.94;6094741;23;20365;-77
2024/02/06 09:25:20;;;;;;;0.90;0.57;;;10.50;99.90;;;10.59;89.78;99953.97;6073400;23;20422;-77
2024/02/06 09:27:49;;;;;;;3.30;1.53;;;10.50;99.90;;;10.59;89.98;99959.41;6071956;23;20475;-77
2024/02/06 09:30:21;;;;;;;1.40;0.97;;;10.50;99.90;;;10.67;89.51;99942.84;6072826;23;20424;-77
2024/02/06 09:32:49;;;;;;;4.77;1.80;;;10.50;99.90;;;10.68;89.18;99958.03;6073470;23;20392;-77
2024/02/06 09:35:20;;;;;;;0.97;0.73;;;10.50;99.90;;;10.64;89.36;99948.72;6071667;23;20422;-78
2024/02/06 09:37:49;;;;;;;1.10;0.77;;;10.50;99.90;;;10.70;89.56;99953.22;6070852;23;20358;-76
2024/02/06 09:40:18;;;;;;;1.20;1.10;;;10.60;99.90;;;10.74;88.72;99967.13;6072339;23;20452;-77
2024/02/06 09:42:49;;;;;;;1.17;1.03;;;10.60;99.90;;;10.71;88.94;99946.75;6074549;23;20492;-78
2024/02/06 09:45:18;;;;;;;1.97;1.23;;;10.60;99.90;;;10.78;88.31;99958.34;6075912;23;20377;-77
2024/02/06 09:47:50;;;;;;;1.20;0.80;;;10.70;99.90;;;10.79;88.29;99970.00;6072597;23;20553;-77
2024/02/06 09:50:26;;;;;;;2.20;2.00;;;10.60;99.90;;;10.79;88.73;99957.28;6076174;23;20770;-78
2024/02/06 09:53:02;;;;;;;1.07;0.90;;;10.70;99.90;;;10.89;88.30;99960.28;6079869;23;20369;-79
2024/02/06 09:55:38;;;;;;;1.20;1.10;;;10.70;99.90;;;10.98;88.08;99951.88;6082500;23;20363;-79
2024/02/06 09:58:21;;;;;;;1.77;1.10;;;10.80;99.90;;;10.96;87.65;99964.78;6079686;23;20372;-78
2024/02/06 10:00:57;;;;;;;2.23;0.90;;;10.80;99.90;;;11.13;87.76;99946.88;6027876;23;20505;-81
2024/02/06 10:03:55;;;;;;;3.37;1.37;;;10.90;99.90;;;11.09;87.29;99942.94;6056395;23;20424;-79
2024/02/06 10:07:45;;;;;;;0.80;0.60;;;11.00;99.90;;;11.08;87.76;99957.56;6080970;23;20427;-78
2024/02/06 10:10:18;;;;;;;1.10;0.80;;;10.90;99.90;;;11.07;87.93;99939.66;6078791;23;20530;-79
2024/02/06 10:12:48;;;;;;;1.47;1.07;;;10.90;99.90;;;11.19;87.25;99932.41;6078844;23;20355;-79
2024/02/06 10:15:31;;;;;;;1.00;0.87;;;11.00;99.90;;;11.32;86.41;99940.38;6080200;23;20868;-79
2024/02/06 10:21:24;;;;;;;1.67;0.90;;;11.20;99.90;;;11.67;84.88;99930.44;6079520;23;20425;-79
2024/02/06 10:24:13;;;;;;;0.93;0.60;;;11.40;99.90;;;11.59;84.36;99922.66;6053600;23;20487;-78
2024/02/06 10:26:45;;;;;;;3.20;0.60;;;11.50;99.90;;;11.55;84.57;99931.47;6079303;23;20464;-79
2024/02/06 10:29:21;;;;;;;1.20;0.87;;;11.40;99.90;;;11.68;83.47;99942.09;6058351;23;20530;-79
2024/02/06 10:31:58;;;;;;;2.30;0.83;;;11.50;99.90;;;11.69;83.69;99931.03;6079916;23;20388;-77
2024/02/06 10:34:34;;;;;;;1.77;0.80;;;11.50;99.90;;;11.72;84.03;99924.31;6053605;23;20864;-78
2024/02/06 10:37:10;;;;;;;1.60;1.10;;;11.60;99.90;;;11.72;83.37;99932.44;6079778;23;20385;-79
2024/02/06 10:39:45;;;;;;;0.90;0.70;;;11.60;99.90;;;11.61;84.30;99928.66;6052407;23;20450;-78
2024/02/06 10:42:23;;;;;;;1.40;0.90;;;11.50;99.90;;;11.60;84.60;99935.16;6052422;23;20413;-79
2024/02/06 10:45:21;;;;;;;4.20;0.90;;;11.50;99.90;;;11.64;84.88;99927.38;6075499;23;21077;-77
2024/02/06 10:48:06;;;;;;;1.33;0.87;;;11.50;99.90;;;11.66;85.01;99933.41;6077550;23;20451;-78
2024/02/06 10:50:42;;;;;;;3.10;1.13;;;11.50;99.90;;;11.61;85.34;99917.84;6056451;23;20443;-78
2024/02/06 10:53:17;;;;;;;1.50;0.83;;;11.50;99.90;;;11.97;84.02;99921.44;6078763;23;20377;-78